KBXA

Details ICAO KBXA
Name GEORGE R CARR MEM AIR FLD
Region United States
Timezone America/Chicago (UTC-5.0)
Plans Departing 1
Arriving 1
Stats Elevation 119 ft / 36 m (AMSL)
Location 30.813714° -89.864954°
Runways 1
Magnetic Variation 1.110° W
Sunrise 2018-05-26 11:00:18 UTC / 2018-05-26 06:00:18 Local
Sunset 2018-05-27 00:55:38 UTC / 2018-05-26 19:55:38 Local
Advertisement - Login to hide

Runways

ID Width Length Bearing (true) Bearing (mag) Surface Threshold Offset Overrun Length
18 100 ft / 30 m 3,812 ft / 1,162 m 182.73° 183.84° Asphalt 595 ft / 181 m 0 ft / 0 m
36 100 ft / 30 m 3,812 ft / 1,162 m 2.73° 3.84° Asphalt 606 ft / 185 m 0 ft / 0 m

Map

Weather


0- 5 10 15 20 25 30 35+ Temperature / ° C

Clouds and Precipitation
Forecast for 2018-05-26 12:00 UTC. Updated 3 hours ago

Ground ~20,000 ft ~40,000 ft Winds

METAR

KBXA 261415Z AUTO 12003KT 10SM BKN004 24/23 A2994 RMK AO2 LTG DSNT SE T02420225

TAF

Not found

Frequencies

Recorded 118.02 MHz AWOS 3
Unicom 122.80 MHz CTAF/UNICOM
Warning: Do not use this data for real-world aviation or navigation. No guarantee of current accuracy is given.